sensor_id;sensor_type;location;lat;lon;timestamp;P1;durP1;ratioP1;P2;durP2;ratioP2
35223;SDS011;21367;51.930;8.112;2022-08-18T00:01:49;84.45;;;51.78;;
35223;SDS011;21367;51.930;8.112;2022-08-18T00:06:57;83.15;;;53.80;;
35223;SDS011;21367;51.930;8.112;2022-08-18T00:12:04;86.40;;;52.88;;
35223;SDS011;21367;51.930;8.112;2022-08-18T00:17:14;89.60;;;56.28;;
35223;SDS011;21367;51.930;8.112;2022-08-18T00:22:20;88.27;;;57.00;;
35223;SDS011;21367;51.930;8.112;2022-08-18T00:27:27;104.10;;;58.58;;
35223;SDS011;21367;51.930;8.112;2022-08-18T00:32:34;99.82;;;60.13;;
35223;SDS011;21367;51.930;8.112;2022-08-18T00:37:40;99.60;;;59.50;;
35223;SDS011;21367;51.930;8.112;2022-08-18T00:42:48;88.90;;;58.42;;
35223;SDS011;21367;51.930;8.112;2022-08-18T00:47:53;89.05;;;56.40;;
35223;SDS011;21367;51.930;8.112;2022-08-18T00:52:58;99.03;;;59.65;;
35223;SDS011;21367;51.930;8.112;2022-08-18T00:58:09;115.28;;;67.18;;
35223;SDS011;21367;51.930;8.112;2022-08-18T01:03:18;108.53;;;66.47;;
35223;SDS011;21367;51.930;8.112;2022-08-18T01:08:24;112.43;;;67.53;;
35223;SDS011;21367;51.930;8.112;2022-08-18T01:13:31;108.32;;;68.90;;
35223;SDS011;21367;51.930;8.112;2022-08-18T01:18:38;111.07;;;68.05;;
35223;SDS011;21367;51.930;8.112;2022-08-18T01:23:56;119.03;;;69.10;;
35223;SDS011;21367;51.930;8.112;2022-08-18T01:29:02;128.35;;;73.75;;
35223;SDS011;21367;51.930;8.112;2022-08-18T01:34:25;130.70;;;77.50;;
35223;SDS011;21367;51.930;8.112;2022-08-18T01:39:32;123.43;;;74.60;;
35223;SDS011;21367;51.930;8.112;2022-08-18T01:44:38;121.13;;;72.80;;
35223;SDS011;21367;51.930;8.112;2022-08-18T01:49:42;125.15;;;73.70;;
35223;SDS011;21367;51.930;8.112;2022-08-18T01:54:50;128.38;;;73.93;;
35223;SDS011;21367;51.930;8.112;2022-08-18T01:59:57;127.30;;;75.40;;
35223;SDS011;21367;51.930;8.112;2022-08-18T02:05:13;136.88;;;79.03;;
35223;SDS011;21367;51.930;8.112;2022-08-18T02:10:23;139.30;;;79.85;;
35223;SDS011;21367;51.930;8.112;2022-08-18T02:15:27;133.50;;;78.88;;
35223;SDS011;21367;51.930;8.112;2022-08-18T02:20:31;151.35;;;86.00;;
35223;SDS011;21367;51.930;8.112;2022-08-18T02:25:37;155.10;;;84.30;;
35223;SDS011;21367;51.930;8.112;2022-08-18T02:35:46;143.63;;;83.60;;
35223;SDS011;21367;51.930;8.112;2022-08-18T02:40:58;142.80;;;81.97;;
35223;SDS011;21367;51.930;8.112;2022-08-18T02:46:06;140.68;;;83.13;;
35223;SDS011;21367;51.930;8.112;2022-08-18T02:51:12;146.02;;;84.60;;
35223;SDS011;21367;51.930;8.112;2022-08-18T02:56:21;147.20;;;83.35;;
35223;SDS011;21367;51.930;8.112;2022-08-18T03:01:28;147.95;;;86.00;;
35223;SDS011;21367;51.930;8.112;2022-08-18T03:06:34;140.88;;;82.25;;
35223;SDS011;21367;51.930;8.112;2022-08-18T03:11:41;133.03;;;79.77;;
35223;SDS011;21367;51.930;8.112;2022-08-18T03:16:47;132.02;;;79.38;;
35223;SDS011;21367;51.930;8.112;2022-08-18T03:21:52;142.87;;;80.87;;
35223;SDS011;21367;51.930;8.112;2022-08-18T03:27:03;138.35;;;79.63;;
35223;SDS011;21367;51.930;8.112;2022-08-18T03:32:08;155.27;;;86.10;;
35223;SDS011;21367;51.930;8.112;2022-08-18T03:37:11;146.05;;;84.40;;
35223;SDS011;21367;51.930;8.112;2022-08-18T03:42:19;161.70;;;89.28;;
35223;SDS011;21367;51.930;8.112;2022-08-18T03:47:23;184.95;;;96.55;;
35223;SDS011;21367;51.930;8.112;2022-08-18T03:52:27;204.38;;;97.55;;
35223;SDS011;21367;51.930;8.112;2022-08-18T03:57:34;218.75;;;96.85;;
35223;SDS011;21367;51.930;8.112;2022-08-18T04:02:38;212.30;;;96.88;;
35223;SDS011;21367;51.930;8.112;2022-08-18T04:07:42;208.38;;;98.22;;
35223;SDS011;21367;51.930;8.112;2022-08-18T04:12:48;204.38;;;95.72;;
35223;SDS011;21367;51.930;8.112;2022-08-18T04:17:53;209.93;;;93.95;;
35223;SDS011;21367;51.930;8.112;2022-08-18T04:23:00;201.13;;;87.05;;
35223;SDS011;21367;51.930;8.112;2022-08-18T04:28:07;201.02;;;90.75;;
35223;SDS011;21367;51.930;8.112;2022-08-18T04:33:10;192.98;;;86.05;;
35223;SDS011;21367;51.930;8.112;2022-08-18T04:38:14;195.38;;;86.90;;
35223;SDS011;21367;51.930;8.112;2022-08-18T04:43:21;208.68;;;89.35;;
35223;SDS011;21367;51.930;8.112;2022-08-18T04:48:25;195.32;;;84.72;;
35223;SDS011;21367;51.930;8.112;2022-08-18T04:53:28;207.80;;;89.35;;
35223;SDS011;21367;51.930;8.112;2022-08-18T05:03:52;203.88;;;87.00;;
35223;SDS011;21367;51.930;8.112;2022-08-18T05:08:57;185.27;;;85.22;;
35223;SDS011;21367;51.930;8.112;2022-08-18T05:14:07;197.60;;;85.72;;
35223;SDS011;21367;51.930;8.112;2022-08-18T05:19:12;200.88;;;87.65;;
35223;SDS011;21367;51.930;8.112;2022-08-18T05:24:16;190.90;;;83.65;;
35223;SDS011;21367;51.930;8.112;2022-08-18T05:29:22;189.13;;;81.78;;
35223;SDS011;21367;51.930;8.112;2022-08-18T05:34:26;171.00;;;76.15;;
35223;SDS011;21367;51.930;8.112;2022-08-18T05:39:31;161.23;;;76.05;;
35223;SDS011;21367;51.930;8.112;2022-08-18T05:44:46;151.35;;;70.85;;
35223;SDS011;21367;51.930;8.112;2022-08-18T05:49:51;131.18;;;64.35;;
35223;SDS011;21367;51.930;8.112;2022-08-18T05:54:59;120.22;;;63.08;;
35223;SDS011;21367;51.930;8.112;2022-08-18T06:00:21;122.07;;;62.35;;
35223;SDS011;21367;51.930;8.112;2022-08-18T06:05:27;136.57;;;68.47;;
35223;SDS011;21367;51.930;8.112;2022-08-18T06:10:33;141.82;;;68.60;;
35223;SDS011;21367;51.930;8.112;2022-08-18T06:15:41;150.23;;;69.90;;
35223;SDS011;21367;51.930;8.112;2022-08-18T06:20:56;145.38;;;69.55;;
35223;SDS011;21367;51.930;8.112;2022-08-18T06:26:12;146.80;;;70.10;;
35223;SDS011;21367;51.930;8.112;2022-08-18T06:31:25;156.80;;;74.10;;
35223;SDS011;21367;51.930;8.112;2022-08-18T06:36:37;148.88;;;71.57;;
35223;SDS011;21367;51.930;8.112;2022-08-18T06:41:50;158.75;;;73.30;;
35223;SDS011;21367;51.930;8.112;2022-08-18T06:46:57;153.30;;;72.68;;
35223;SDS011;21367;51.930;8.112;2022-08-18T06:52:23;156.52;;;73.30;;
35223;SDS011;21367;51.930;8.112;2022-08-18T06:57:30;156.07;;;72.78;;
35223;SDS011;21367;51.930;8.112;2022-08-18T07:02:41;159.98;;;75.22;;
35223;SDS011;21367;51.930;8.112;2022-08-18T07:08:01;168.23;;;76.03;;
35223;SDS011;21367;51.930;8.112;2022-08-18T07:13:17;167.93;;;76.88;;
35223;SDS011;21367;51.930;8.112;2022-08-18T07:18:27;180.05;;;79.97;;
35223;SDS011;21367;51.930;8.112;2022-08-18T07:23:32;183.23;;;82.13;;
35223;SDS011;21367;51.930;8.112;2022-08-18T07:28:39;173.30;;;79.50;;
35223;SDS011;21367;51.930;8.112;2022-08-18T07:33:50;181.23;;;80.75;;
35223;SDS011;21367;51.930;8.112;2022-08-18T07:38:59;196.23;;;83.28;;
35223;SDS011;21367;51.930;8.112;2022-08-18T07:44:10;201.40;;;82.38;;
35223;SDS011;21367;51.930;8.112;2022-08-18T07:49:22;190.98;;;80.93;;
35223;SDS011;21367;51.930;8.112;2022-08-18T07:54:37;190.50;;;79.63;;
35223;SDS011;21367;51.930;8.112;2022-08-18T07:59:49;194.35;;;78.20;;
35223;SDS011;21367;51.930;8.112;2022-08-18T08:05:05;197.15;;;80.93;;
35223;SDS011;21367;51.930;8.112;2022-08-18T08:10:19;193.93;;;80.40;;
35223;SDS011;21367;51.930;8.112;2022-08-18T08:15:31;185.27;;;75.40;;
35223;SDS011;21367;51.930;8.112;2022-08-18T08:20:47;211.02;;;80.57;;
35223;SDS011;21367;51.930;8.112;2022-08-18T08:25:59;189.23;;;77.75;;
35223;SDS011;21367;51.930;8.112;2022-08-18T08:31:17;187.10;;;76.63;;
35223;SDS011;21367;51.930;8.112;2022-08-18T08:36:32;182.00;;;73.93;;
35223;SDS011;21367;51.930;8.112;2022-08-18T08:41:39;173.57;;;74.75;;
35223;SDS011;21367;51.930;8.112;2022-08-18T08:46:50;175.93;;;75.97;;
35223;SDS011;21367;51.930;8.112;2022-08-18T08:52:02;182.75;;;77.07;;
35223;SDS011;21367;51.930;8.112;2022-08-18T08:57:12;181.88;;;77.35;;
35223;SDS011;21367;51.930;8.112;2022-08-18T09:02:23;179.00;;;77.00;;
35223;SDS011;21367;51.930;8.112;2022-08-18T09:07:40;176.43;;;76.00;;
35223;SDS011;21367;51.930;8.112;2022-08-18T09:12:56;167.48;;;75.40;;
35223;SDS011;21367;51.930;8.112;2022-08-18T09:18:33;155.43;;;68.93;;
35223;SDS011;21367;51.930;8.112;2022-08-18T09:23:54;154.88;;;68.75;;
35223;SDS011;21367;51.930;8.112;2022-08-18T09:29:15;140.05;;;65.00;;
35223;SDS011;21367;51.930;8.112;2022-08-18T09:34:25;134.05;;;63.53;;
35223;SDS011;21367;51.930;8.112;2022-08-18T09:39:50;132.40;;;62.17;;
35223;SDS011;21367;51.930;8.112;2022-08-18T09:50:51;134.07;;;62.80;;
35223;SDS011;21367;51.930;8.112;2022-08-18T09:56:00;119.75;;;59.33;;
35223;SDS011;21367;51.930;8.112;2022-08-18T10:01:17;117.85;;;59.42;;
35223;SDS011;21367;51.930;8.112;2022-08-18T10:06:37;112.93;;;57.10;;
35223;SDS011;21367;51.930;8.112;2022-08-18T10:11:46;110.47;;;57.47;;
35223;SDS011;21367;51.930;8.112;2022-08-18T10:17:09;112.53;;;56.10;;
35223;SDS011;21367;51.930;8.112;2022-08-18T10:27:51;102.63;;;53.60;;
35223;SDS011;21367;51.930;8.112;2022-08-18T10:32:58;101.60;;;52.83;;
35223;SDS011;21367;51.930;8.112;2022-08-18T10:38:02;89.07;;;49.35;;
35223;SDS011;21367;51.930;8.112;2022-08-18T10:43:21;91.47;;;48.95;;
35223;SDS011;21367;51.930;8.112;2022-08-18T10:48:31;84.57;;;46.38;;
35223;SDS011;21367;51.930;8.112;2022-08-18T10:53:39;88.47;;;48.25;;
35223;SDS011;21367;51.930;8.112;2022-08-18T10:59:08;87.35;;;47.40;;
35223;SDS011;21367;51.930;8.112;2022-08-18T11:04:24;75.53;;;41.20;;
35223;SDS011;21367;51.930;8.112;2022-08-18T11:09:31;87.63;;;45.28;;
35223;SDS011;21367;51.930;8.112;2022-08-18T11:20:17;83.07;;;44.75;;
35223;SDS011;21367;51.930;8.112;2022-08-18T11:25:25;81.05;;;45.00;;
35223;SDS011;21367;51.930;8.112;2022-08-18T11:30:33;88.60;;;46.42;;
35223;SDS011;21367;51.930;8.112;2022-08-18T11:35:43;91.18;;;49.70;;
35223;SDS011;21367;51.930;8.112;2022-08-18T11:40:50;92.03;;;44.47;;
35223;SDS011;21367;51.930;8.112;2022-08-18T11:45:59;71.43;;;38.95;;
35223;SDS011;21367;51.930;8.112;2022-08-18T11:51:16;64.25;;;38.47;;
35223;SDS011;21367;51.930;8.112;2022-08-18T11:56:23;76.55;;;41.72;;
35223;SDS011;21367;51.930;8.112;2022-08-18T12:01:39;65.20;;;38.53;;
35223;SDS011;21367;51.930;8.112;2022-08-18T12:06:55;53.60;;;30.20;;
35223;SDS011;21367;51.930;8.112;2022-08-18T12:12:03;41.40;;;23.70;;
35223;SDS011;21367;51.930;8.112;2022-08-18T12:17:18;30.85;;;19.90;;
35223;SDS011;21367;51.930;8.112;2022-08-18T12:22:24;38.58;;;22.63;;
35223;SDS011;21367;51.930;8.112;2022-08-18T12:27:29;43.80;;;26.77;;
35223;SDS011;21367;51.930;8.112;2022-08-18T12:32:35;39.08;;;24.67;;
35223;SDS011;21367;51.930;8.112;2022-08-18T12:37:41;34.85;;;21.40;;
35223;SDS011;21367;51.930;8.112;2022-08-18T12:42:47;35.65;;;20.52;;
35223;SDS011;21367;51.930;8.112;2022-08-18T12:47:55;23.25;;;13.63;;
35223;SDS011;21367;51.930;8.112;2022-08-18T12:53:02;24.48;;;15.30;;
35223;SDS011;21367;51.930;8.112;2022-08-18T12:58:05;19.25;;;13.35;;
35223;SDS011;21367;51.930;8.112;2022-08-18T13:03:12;22.80;;;13.13;;
35223;SDS011;21367;51.930;8.112;2022-08-18T13:08:18;23.75;;;15.50;;
35223;SDS011;21367;51.930;8.112;2022-08-18T13:13:24;27.17;;;16.35;;
35223;SDS011;21367;51.930;8.112;2022-08-18T13:18:31;20.92;;;14.30;;
35223;SDS011;21367;51.930;8.112;2022-08-18T13:23:34;25.75;;;17.00;;
35223;SDS011;21367;51.930;8.112;2022-08-18T13:28:40;30.75;;;19.58;;
35223;SDS011;21367;51.930;8.112;2022-08-18T13:33:46;25.92;;;18.10;;
35223;SDS011;21367;51.930;8.112;2022-08-18T13:38:50;25.42;;;15.05;;
35223;SDS011;21367;51.930;8.112;2022-08-18T13:43:55;25.48;;;16.98;;
35223;SDS011;21367;51.930;8.112;2022-08-18T13:49:01;23.55;;;15.85;;
35223;SDS011;21367;51.930;8.112;2022-08-18T13:54:06;17.73;;;11.93;;
35223;SDS011;21367;51.930;8.112;2022-08-18T13:59:10;19.52;;;11.77;;
35223;SDS011;21367;51.930;8.112;2022-08-18T14:04:17;14.35;;;9.77;;
35223;SDS011;21367;51.930;8.112;2022-08-18T14:09:21;16.85;;;10.95;;
35223;SDS011;21367;51.930;8.112;2022-08-18T14:14:26;14.68;;;9.65;;
35223;SDS011;21367;51.930;8.112;2022-08-18T14:19:33;12.30;;;8.70;;
35223;SDS011;21367;51.930;8.112;2022-08-18T14:24:49;12.13;;;9.15;;
35223;SDS011;21367;51.930;8.112;2022-08-18T14:30:07;13.25;;;9.27;;
35223;SDS011;21367;51.930;8.112;2022-08-18T14:35:16;9.73;;;7.43;;
35223;SDS011;21367;51.930;8.112;2022-08-18T14:40:21;13.85;;;6.97;;
35223;SDS011;21367;51.930;8.112;2022-08-18T14:45:25;9.85;;;7.10;;
35223;SDS011;21367;51.930;8.112;2022-08-18T14:50:32;13.27;;;8.05;;
35223;SDS011;21367;51.930;8.112;2022-08-18T14:55:36;19.20;;;7.72;;
35223;SDS011;21367;51.930;8.112;2022-08-18T15:00:40;10.40;;;7.05;;
35223;SDS011;21367;51.930;8.112;2022-08-18T15:05:46;13.85;;;6.45;;
35223;SDS011;21367;51.930;8.112;2022-08-18T15:10:50;11.15;;;7.03;;
35223;SDS011;21367;51.930;8.112;2022-08-18T15:15:54;10.00;;;6.60;;
35223;SDS011;21367;51.930;8.112;2022-08-18T15:21:00;8.57;;;5.47;;
35223;SDS011;21367;51.930;8.112;2022-08-18T15:26:17;8.75;;;5.57;;
35223;SDS011;21367;51.930;8.112;2022-08-18T15:31:24;6.63;;;4.93;;
35223;SDS011;21367;51.930;8.112;2022-08-18T15:36:33;13.73;;;5.10;;
35223;SDS011;21367;51.930;8.112;2022-08-18T15:41:39;7.57;;;4.18;;
35223;SDS011;21367;51.930;8.112;2022-08-18T15:46:46;12.75;;;4.95;;
35223;SDS011;21367;51.930;8.112;2022-08-18T15:51:55;8.43;;;5.07;;
35223;SDS011;21367;51.930;8.112;2022-08-18T15:56:58;6.95;;;4.88;;
35223;SDS011;21367;51.930;8.112;2022-08-18T16:02:02;13.52;;;4.80;;
35223;SDS011;21367;51.930;8.112;2022-08-18T16:07:08;13.02;;;5.40;;
35223;SDS011;21367;51.930;8.112;2022-08-18T16:12:13;10.63;;;4.80;;
35223;SDS011;21367;51.930;8.112;2022-08-18T16:17:17;9.48;;;4.20;;
35223;SDS011;21367;51.930;8.112;2022-08-18T16:22:24;11.17;;;4.60;;
35223;SDS011;21367;51.930;8.112;2022-08-18T16:27:27;11.30;;;4.45;;
35223;SDS011;21367;51.930;8.112;2022-08-18T16:32:34;9.95;;;4.68;;
35223;SDS011;21367;51.930;8.112;2022-08-18T16:37:41;10.13;;;4.83;;
35223;SDS011;21367;51.930;8.112;2022-08-18T16:42:53;8.05;;;4.57;;
35223;SDS011;21367;51.930;8.112;2022-08-18T16:48:02;11.33;;;4.77;;
35223;SDS011;21367;51.930;8.112;2022-08-18T16:53:11;10.98;;;4.57;;
35223;SDS011;21367;51.930;8.112;2022-08-18T16:58:14;10.90;;;4.95;;
35223;SDS011;21367;51.930;8.112;2022-08-18T17:03:40;13.73;;;4.25;;
35223;SDS011;21367;51.930;8.112;2022-08-18T17:09:00;10.20;;;4.82;;
35223;SDS011;21367;51.930;8.112;2022-08-18T17:14:07;13.32;;;5.30;;
35223;SDS011;21367;51.930;8.112;2022-08-18T17:19:15;15.27;;;4.50;;
35223;SDS011;21367;51.930;8.112;2022-08-18T17:24:24;15.40;;;5.30;;
35223;SDS011;21367;51.930;8.112;2022-08-18T17:29:46;11.65;;;4.93;;
35223;SDS011;21367;51.930;8.112;2022-08-18T17:34:56;7.50;;;4.55;;
35223;SDS011;21367;51.930;8.112;2022-08-18T17:40:11;15.15;;;6.18;;
35223;SDS011;21367;51.930;8.112;2022-08-18T17:45:20;9.57;;;4.80;;
35223;SDS011;21367;51.930;8.112;2022-08-18T17:50:25;10.20;;;5.35;;
35223;SDS011;21367;51.930;8.112;2022-08-18T17:55:48;12.55;;;5.07;;
35223;SDS011;21367;51.930;8.112;2022-08-18T18:00:54;10.52;;;4.85;;
35223;SDS011;21367;51.930;8.112;2022-08-18T18:06:01;14.88;;;5.68;;
35223;SDS011;21367;51.930;8.112;2022-08-18T18:11:11;9.13;;;5.55;;
35223;SDS011;21367;51.930;8.112;2022-08-18T18:16:20;11.73;;;6.47;;
35223;SDS011;21367;51.930;8.112;2022-08-18T18:21:27;13.30;;;6.38;;
35223;SDS011;21367;51.930;8.112;2022-08-18T18:26:36;10.23;;;5.43;;
35223;SDS011;21367;51.930;8.112;2022-08-18T18:31:43;10.68;;;5.43;;
35223;SDS011;21367;51.930;8.112;2022-08-18T18:36:48;13.82;;;6.00;;
35223;SDS011;21367;51.930;8.112;2022-08-18T18:47:34;8.40;;;4.95;;
35223;SDS011;21367;51.930;8.112;2022-08-18T18:52:56;13.40;;;5.10;;
35223;SDS011;21367;51.930;8.112;2022-08-18T18:58:15;12.38;;;5.43;;
35223;SDS011;21367;51.930;8.112;2022-08-18T19:03:32;10.48;;;5.47;;
35223;SDS011;21367;51.930;8.112;2022-08-18T19:08:51;9.57;;;4.90;;
35223;SDS011;21367;51.930;8.112;2022-08-18T19:14:07;10.32;;;4.80;;
35223;SDS011;21367;51.930;8.112;2022-08-18T19:19:17;11.18;;;4.72;;
35223;SDS011;21367;51.930;8.112;2022-08-18T19:24:25;7.82;;;4.68;;
35223;SDS011;21367;51.930;8.112;2022-08-18T19:29:36;9.93;;;4.45;;
35223;SDS011;21367;51.930;8.112;2022-08-18T19:34:45;10.13;;;4.45;;
35223;SDS011;21367;51.930;8.112;2022-08-18T19:39:53;12.32;;;4.82;;
35223;SDS011;21367;51.930;8.112;2022-08-18T19:45:10;9.10;;;4.43;;
35223;SDS011;21367;51.930;8.112;2022-08-18T19:50:23;10.25;;;3.72;;
35223;SDS011;21367;51.930;8.112;2022-08-18T19:55:36;10.23;;;4.60;;
35223;SDS011;21367;51.930;8.112;2022-08-18T20:00:58;10.65;;;5.30;;
35223;SDS011;21367;51.930;8.112;2022-08-18T20:06:07;10.18;;;5.38;;
35223;SDS011;21367;51.930;8.112;2022-08-18T20:11:26;14.82;;;6.00;;
35223;SDS011;21367;51.930;8.112;2022-08-18T20:16:42;19.30;;;6.35;;
35223;SDS011;21367;51.930;8.112;2022-08-18T20:22:31;12.57;;;6.63;;
35223;SDS011;21367;51.930;8.112;2022-08-18T20:27:39;19.45;;;7.70;;
35223;SDS011;21367;51.930;8.112;2022-08-18T20:33:02;14.93;;;6.90;;
35223;SDS011;21367;51.930;8.112;2022-08-18T20:38:25;13.60;;;7.28;;
35223;SDS011;21367;51.930;8.112;2022-08-18T20:43:33;22.40;;;7.78;;
35223;SDS011;21367;51.930;8.112;2022-08-18T20:48:46;12.52;;;6.65;;
35223;SDS011;21367;51.930;8.112;2022-08-18T20:54:08;16.27;;;7.07;;
35223;SDS011;21367;51.930;8.112;2022-08-18T20:59:27;9.30;;;6.38;;
35223;SDS011;21367;51.930;8.112;2022-08-18T21:04:37;13.00;;;6.18;;
35223;SDS011;21367;51.930;8.112;2022-08-18T21:09:50;12.80;;;5.78;;
35223;SDS011;21367;51.930;8.112;2022-08-18T21:14:55;12.57;;;6.38;;
35223;SDS011;21367;51.930;8.112;2022-08-18T21:20:04;12.05;;;6.13;;
35223;SDS011;21367;51.930;8.112;2022-08-18T21:25:11;17.23;;;6.47;;
35223;SDS011;21367;51.930;8.112;2022-08-18T21:35:25;16.17;;;6.68;;
35223;SDS011;21367;51.930;8.112;2022-08-18T21:40:35;11.95;;;6.95;;
35223;SDS011;21367;51.930;8.112;2022-08-18T21:45:41;11.80;;;6.43;;
35223;SDS011;21367;51.930;8.112;2022-08-18T21:50:54;11.20;;;5.70;;
35223;SDS011;21367;51.930;8.112;2022-08-18T21:56:01;13.95;;;5.88;;
35223;SDS011;21367;51.930;8.112;2022-08-18T22:01:07;13.25;;;5.82;;
35223;SDS011;21367;51.930;8.112;2022-08-18T22:06:19;12.38;;;5.60;;
35223;SDS011;21367;51.930;8.112;2022-08-18T22:11:29;12.05;;;6.20;;
35223;SDS011;21367;51.930;8.112;2022-08-18T22:16:47;15.30;;;5.72;;
35223;SDS011;21367;51.930;8.112;2022-08-18T22:21:58;12.00;;;5.65;;
35223;SDS011;21367;51.930;8.112;2022-08-18T22:27:24;17.05;;;6.00;;
35223;SDS011;21367;51.930;8.112;2022-08-18T22:32:29;16.10;;;6.75;;
35223;SDS011;21367;51.930;8.112;2022-08-18T22:37:38;18.88;;;6.72;;
35223;SDS011;21367;51.930;8.112;2022-08-18T22:42:46;14.60;;;7.50;;
35223;SDS011;21367;51.930;8.112;2022-08-18T22:47:50;14.50;;;6.97;;
35223;SDS011;21367;51.930;8.112;2022-08-18T22:53:02;16.00;;;7.22;;
35223;SDS011;21367;51.930;8.112;2022-08-18T22:58:06;12.30;;;6.57;;
35223;SDS011;21367;51.930;8.112;2022-08-18T23:03:10;13.57;;;6.82;;
35223;SDS011;21367;51.930;8.112;2022-08-18T23:08:17;13.02;;;6.70;;
35223;SDS011;21367;51.930;8.112;2022-08-18T23:13:22;18.70;;;6.72;;
35223;SDS011;21367;51.930;8.112;2022-08-18T23:18:26;12.33;;;7.63;;
35223;SDS011;21367;51.930;8.112;2022-08-18T23:23:34;11.55;;;7.00;;
35223;SDS011;21367;51.930;8.112;2022-08-18T23:28:37;10.80;;;6.30;;
35223;SDS011;21367;51.930;8.112;2022-08-18T23:33:45;16.45;;;6.38;;
35223;SDS011;21367;51.930;8.112;2022-08-18T23:38:52;17.17;;;8.23;;
35223;SDS011;21367;51.930;8.112;2022-08-18T23:43:56;11.65;;;6.78;;
35223;SDS011;21367;51.930;8.112;2022-08-18T23:49:01;14.50;;;7.00;;
35223;SDS011;21367;51.930;8.112;2022-08-18T23:54:09;16.02;;;7.45;;
35223;SDS011;21367;51.930;8.112;2022-08-18T23:59:14;22.15;;;7.70;;
